sensor_id;sensor_type;location;lat;lon;timestamp;P1;durP1;ratioP1;P2;durP2;ratioP2
69207;SDS011;56321;47.662;8.878;2022-09-09T00:12:27;3.15;;;0.52;;
69207;SDS011;56321;47.662;8.878;2022-09-09T00:14:58;4.70;;;0.60;;
69207;SDS011;56321;47.662;8.878;2022-09-09T00:23:28;3.97;;;0.70;;
69207;SDS011;56321;47.662;8.878;2022-09-09T00:25:40;3.78;;;0.57;;
69207;SDS011;56321;47.662;8.878;2022-09-09T00:28:22;4.63;;;0.70;;
69207;SDS011;56321;47.662;8.878;2022-09-09T00:30:50;3.38;;;0.40;;
69207;SDS011;56321;47.662;8.878;2022-09-09T00:33:19;5.50;;;0.70;;
69207;SDS011;56321;47.662;8.878;2022-09-09T00:38:26;4.47;;;0.80;;
69207;SDS011;56321;47.662;8.878;2022-09-09T00:43:42;4.78;;;0.68;;
69207;SDS011;56321;47.662;8.878;2022-09-09T00:46:30;6.90;;;0.70;;
69207;SDS011;56321;47.662;8.878;2022-09-09T00:49:31;4.57;;;0.50;;
69207;SDS011;56321;47.662;8.878;2022-09-09T00:52:30;4.75;;;0.68;;
69207;SDS011;56321;47.662;8.878;2022-09-09T00:55:05;4.13;;;0.60;;
69207;SDS011;56321;47.662;8.878;2022-09-09T00:57:37;4.20;;;0.63;;
69207;SDS011;56321;47.662;8.878;2022-09-09T01:00:19;3.97;;;0.50;;
69207;SDS011;56321;47.662;8.878;2022-09-09T01:07:57;4.53;;;0.63;;
69207;SDS011;56321;47.662;8.878;2022-09-09T01:10:28;4.28;;;0.60;;
69207;SDS011;56321;47.662;8.878;2022-09-09T01:13:08;3.83;;;0.70;;
69207;SDS011;56321;47.662;8.878;2022-09-09T01:15:40;5.40;;;0.60;;
69207;SDS011;56321;47.662;8.878;2022-09-09T01:18:08;4.45;;;0.70;;
69207;SDS011;56321;47.662;8.878;2022-09-09T01:26:19;5.00;;;0.77;;
69207;SDS011;56321;47.662;8.878;2022-09-09T01:28:50;5.82;;;0.80;;
69207;SDS011;56321;47.662;8.878;2022-09-09T01:31:21;4.53;;;0.80;;
69207;SDS011;56321;47.662;8.878;2022-09-09T01:33:52;7.38;;;1.00;;
69207;SDS011;56321;47.662;8.878;2022-09-09T01:38:51;4.85;;;0.80;;
69207;SDS011;56321;47.662;8.878;2022-09-09T01:41:17;5.57;;;0.80;;
69207;SDS011;56321;47.662;8.878;2022-09-09T01:43:42;5.30;;;0.90;;
69207;SDS011;56321;47.662;8.878;2022-09-09T01:46:08;5.85;;;1.10;;
69207;SDS011;56321;47.662;8.878;2022-09-09T01:48:36;5.83;;;0.80;;
69207;SDS011;56321;47.662;8.878;2022-09-09T01:51:01;4.40;;;0.88;;
69207;SDS011;56321;47.662;8.878;2022-09-09T01:53:26;4.70;;;0.70;;
69207;SDS011;56321;47.662;8.878;2022-09-09T01:56:07;4.17;;;0.73;;
69207;SDS011;56321;47.662;8.878;2022-09-09T02:01:42;5.47;;;0.90;;
69207;SDS011;56321;47.662;8.878;2022-09-09T02:07:10;5.47;;;0.83;;
69207;SDS011;56321;47.662;8.878;2022-09-09T02:09:38;4.65;;;0.82;;
69207;SDS011;56321;47.662;8.878;2022-09-09T02:12:10;4.93;;;0.80;;
69207;SDS011;56321;47.662;8.878;2022-09-09T02:14:42;4.15;;;0.80;;
69207;SDS011;56321;47.662;8.878;2022-09-09T02:17:17;6.55;;;0.93;;
69207;SDS011;56321;47.662;8.878;2022-09-09T02:19:54;4.50;;;0.70;;
69207;SDS011;56321;47.662;8.878;2022-09-09T02:22:27;4.10;;;0.80;;
69207;SDS011;56321;47.662;8.878;2022-09-09T02:24:54;4.07;;;0.65;;
69207;SDS011;56321;47.662;8.878;2022-09-09T02:27:23;4.25;;;0.80;;
69207;SDS011;56321;47.662;8.878;2022-09-09T02:29:50;4.20;;;0.80;;
69207;SDS011;56321;47.662;8.878;2022-09-09T02:32:19;4.63;;;0.90;;
69207;SDS011;56321;47.662;8.878;2022-09-09T02:34:47;4.68;;;0.75;;
69207;SDS011;56321;47.662;8.878;2022-09-09T02:37:20;5.47;;;0.85;;
69207;SDS011;56321;47.662;8.878;2022-09-09T02:39:49;5.55;;;0.90;;
69207;SDS011;56321;47.662;8.878;2022-09-09T02:42:16;4.63;;;0.90;;
69207;SDS011;56321;47.662;8.878;2022-09-09T02:44:41;4.85;;;0.73;;
69207;SDS011;56321;47.662;8.878;2022-09-09T02:52:46;4.10;;;0.77;;
69207;SDS011;56321;47.662;8.878;2022-09-09T02:55:38;4.32;;;0.90;;
69207;SDS011;56321;47.662;8.878;2022-09-09T02:58:18;5.15;;;0.77;;
69207;SDS011;56321;47.662;8.878;2022-09-09T03:00:47;5.20;;;0.88;;
69207;SDS011;56321;47.662;8.878;2022-09-09T03:03:15;4.90;;;0.82;;
69207;SDS011;56321;47.662;8.878;2022-09-09T03:05:41;5.80;;;0.93;;
69207;SDS011;56321;47.662;8.878;2022-09-09T03:08:07;3.83;;;0.77;;
69207;SDS011;56321;47.662;8.878;2022-09-09T03:10:33;4.70;;;0.63;;
69207;SDS011;56321;47.662;8.878;2022-09-09T03:12:59;4.15;;;0.70;;
69207;SDS011;56321;47.662;8.878;2022-09-09T03:15:25;4.30;;;0.77;;
69207;SDS011;56321;47.662;8.878;2022-09-09T03:17:54;4.18;;;0.60;;
69207;SDS011;56321;47.662;8.878;2022-09-09T03:20:20;4.53;;;0.70;;
69207;SDS011;56321;47.662;8.878;2022-09-09T03:22:45;5.13;;;0.80;;
69207;SDS011;56321;47.662;8.878;2022-09-09T03:25:10;4.77;;;0.80;;
69207;SDS011;56321;47.662;8.878;2022-09-09T03:27:36;3.53;;;0.77;;
69207;SDS011;56321;47.662;8.878;2022-09-09T03:30:01;4.43;;;0.90;;
69207;SDS011;56321;47.662;8.878;2022-09-09T03:32:28;4.43;;;0.97;;
69207;SDS011;56321;47.662;8.878;2022-09-09T03:34:54;4.82;;;0.90;;
69207;SDS011;56321;47.662;8.878;2022-09-09T03:37:19;4.90;;;0.90;;
69207;SDS011;56321;47.662;8.878;2022-09-09T03:39:45;5.60;;;1.10;;
69207;SDS011;56321;47.662;8.878;2022-09-09T03:42:13;5.50;;;1.00;;
69207;SDS011;56321;47.662;8.878;2022-09-09T03:44:39;5.72;;;1.25;;
69207;SDS011;56321;47.662;8.878;2022-09-09T03:47:06;3.70;;;0.80;;
69207;SDS011;56321;47.662;8.878;2022-09-09T03:49:31;4.80;;;1.10;;
69207;SDS011;56321;47.662;8.878;2022-09-09T03:51:57;4.80;;;0.90;;
69207;SDS011;56321;47.662;8.878;2022-09-09T03:54:23;7.07;;;1.00;;
69207;SDS011;56321;47.662;8.878;2022-09-09T03:56:49;5.63;;;0.93;;
69207;SDS011;56321;47.662;8.878;2022-09-09T03:59:15;4.50;;;1.00;;
69207;SDS011;56321;47.662;8.878;2022-09-09T04:01:40;5.57;;;1.00;;
69207;SDS011;56321;47.662;8.878;2022-09-09T04:04:06;4.82;;;0.90;;
69207;SDS011;56321;47.662;8.878;2022-09-09T04:06:32;4.37;;;0.83;;
69207;SDS011;56321;47.662;8.878;2022-09-09T04:08:58;5.82;;;0.93;;
69207;SDS011;56321;47.662;8.878;2022-09-09T04:11:23;7.67;;;0.90;;
69207;SDS011;56321;47.662;8.878;2022-09-09T04:13:49;4.18;;;0.88;;
69207;SDS011;56321;47.662;8.878;2022-09-09T04:16:15;6.20;;;1.20;;
69207;SDS011;56321;47.662;8.878;2022-09-09T04:18:40;4.70;;;0.90;;
69207;SDS011;56321;47.662;8.878;2022-09-09T04:21:06;3.67;;;0.80;;
69207;SDS011;56321;47.662;8.878;2022-09-09T04:23:32;4.27;;;0.80;;
69207;SDS011;56321;47.662;8.878;2022-09-09T04:25:59;5.60;;;0.73;;
69207;SDS011;56321;47.662;8.878;2022-09-09T04:28:27;5.93;;;1.10;;
69207;SDS011;56321;47.662;8.878;2022-09-09T04:30:54;5.68;;;0.93;;
69207;SDS011;56321;47.662;8.878;2022-09-09T04:33:21;4.45;;;0.95;;
69207;SDS011;56321;47.662;8.878;2022-09-09T04:35:47;4.20;;;0.80;;
69207;SDS011;56321;47.662;8.878;2022-09-09T04:38:14;6.03;;;1.00;;
69207;SDS011;56321;47.662;8.878;2022-09-09T04:40:43;5.47;;;1.10;;
69207;SDS011;56321;47.662;8.878;2022-09-09T04:43:11;5.35;;;0.80;;
69207;SDS011;56321;47.662;8.878;2022-09-09T04:45:37;4.53;;;0.80;;
69207;SDS011;56321;47.662;8.878;2022-09-09T04:48:02;5.07;;;0.90;;
69207;SDS011;56321;47.662;8.878;2022-09-09T04:50:28;4.65;;;0.82;;
69207;SDS011;56321;47.662;8.878;2022-09-09T04:52:54;4.43;;;0.77;;
69207;SDS011;56321;47.662;8.878;2022-09-09T04:55:19;4.50;;;0.80;;
69207;SDS011;56321;47.662;8.878;2022-09-09T04:57:45;5.33;;;0.80;;
69207;SDS011;56321;47.662;8.878;2022-09-09T05:00:10;4.53;;;0.80;;
69207;SDS011;56321;47.662;8.878;2022-09-09T05:02:38;5.25;;;0.85;;
69207;SDS011;56321;47.662;8.878;2022-09-09T05:05:04;4.60;;;1.00;;
69207;SDS011;56321;47.662;8.878;2022-09-09T05:07:30;4.65;;;0.80;;
69207;SDS011;56321;47.662;8.878;2022-09-09T05:09:56;4.10;;;0.68;;
69207;SDS011;56321;47.662;8.878;2022-09-09T05:12:22;4.60;;;0.70;;
69207;SDS011;56321;47.662;8.878;2022-09-09T05:14:49;4.93;;;0.70;;
69207;SDS011;56321;47.662;8.878;2022-09-09T05:17:15;5.75;;;0.60;;
69207;SDS011;56321;47.662;8.878;2022-09-09T05:19:41;4.78;;;0.80;;
69207;SDS011;56321;47.662;8.878;2022-09-09T05:22:06;4.07;;;0.60;;
69207;SDS011;56321;47.662;8.878;2022-09-09T05:24:32;5.10;;;0.80;;
69207;SDS011;56321;47.662;8.878;2022-09-09T05:26:58;4.00;;;0.70;;
69207;SDS011;56321;47.662;8.878;2022-09-09T05:29:25;4.35;;;0.70;;
69207;SDS011;56321;47.662;8.878;2022-09-09T05:31:51;4.05;;;0.50;;
69207;SDS011;56321;47.662;8.878;2022-09-09T05:34:17;3.77;;;0.63;;
69207;SDS011;56321;47.662;8.878;2022-09-09T05:36:42;4.80;;;0.70;;
69207;SDS011;56321;47.662;8.878;2022-09-09T05:39:07;4.00;;;0.60;;
69207;SDS011;56321;47.662;8.878;2022-09-09T05:41:33;4.32;;;0.90;;
69207;SDS011;56321;47.662;8.878;2022-09-09T05:43:58;3.37;;;0.60;;
69207;SDS011;56321;47.662;8.878;2022-09-09T05:46:26;3.83;;;0.60;;
69207;SDS011;56321;47.662;8.878;2022-09-09T05:48:52;5.63;;;0.67;;
69207;SDS011;56321;47.662;8.878;2022-09-09T05:51:27;3.45;;;0.70;;
69207;SDS011;56321;47.662;8.878;2022-09-09T05:53:55;4.10;;;0.60;;
69207;SDS011;56321;47.662;8.878;2022-09-09T05:56:24;4.55;;;0.80;;
69207;SDS011;56321;47.662;8.878;2022-09-09T05:58:51;3.95;;;0.70;;
69207;SDS011;56321;47.662;8.878;2022-09-09T06:01:19;3.88;;;0.80;;
69207;SDS011;56321;47.662;8.878;2022-09-09T06:03:46;4.40;;;0.88;;
69207;SDS011;56321;47.662;8.878;2022-09-09T06:06:14;3.50;;;0.80;;
69207;SDS011;56321;47.662;8.878;2022-09-09T06:08:42;3.63;;;0.70;;
69207;SDS011;56321;47.662;8.878;2022-09-09T06:11:13;7.00;;;0.90;;
69207;SDS011;56321;47.662;8.878;2022-09-09T06:13:44;3.33;;;0.60;;
69207;SDS011;56321;47.662;8.878;2022-09-09T06:16:10;4.93;;;0.73;;
69207;SDS011;56321;47.662;8.878;2022-09-09T06:18:37;4.45;;;0.80;;
69207;SDS011;56321;47.662;8.878;2022-09-09T06:21:04;6.30;;;0.90;;
69207;SDS011;56321;47.662;8.878;2022-09-09T06:23:31;4.60;;;0.90;;
69207;SDS011;56321;47.662;8.878;2022-09-09T06:28:33;3.75;;;0.60;;
69207;SDS011;56321;47.662;8.878;2022-09-09T06:31:00;3.38;;;0.65;;
69207;SDS011;56321;47.662;8.878;2022-09-09T06:33:26;4.38;;;0.80;;
69207;SDS011;56321;47.662;8.878;2022-09-09T06:35:55;4.25;;;0.70;;
69207;SDS011;56321;47.662;8.878;2022-09-09T06:38:22;3.87;;;0.70;;
69207;SDS011;56321;47.662;8.878;2022-09-09T06:40:54;4.93;;;0.80;;
69207;SDS011;56321;47.662;8.878;2022-09-09T06:43:21;3.83;;;0.88;;
69207;SDS011;56321;47.662;8.878;2022-09-09T06:48:23;3.45;;;0.60;;
69207;SDS011;56321;47.662;8.878;2022-09-09T06:50:50;4.53;;;0.80;;
69207;SDS011;56321;47.662;8.878;2022-09-09T06:53:24;4.93;;;0.80;;
69207;SDS011;56321;47.662;8.878;2022-09-09T06:55:51;6.00;;;0.80;;
69207;SDS011;56321;47.662;8.878;2022-09-09T06:58:16;4.87;;;0.77;;
69207;SDS011;56321;47.662;8.878;2022-09-09T07:00:41;4.30;;;0.80;;
69207;SDS011;56321;47.662;8.878;2022-09-09T07:03:07;4.23;;;0.60;;
69207;SDS011;56321;47.662;8.878;2022-09-09T07:05:32;3.80;;;0.73;;
69207;SDS011;56321;47.662;8.878;2022-09-09T07:07:58;3.60;;;0.60;;
69207;SDS011;56321;47.662;8.878;2022-09-09T07:10:23;4.03;;;0.80;;
69207;SDS011;56321;47.662;8.878;2022-09-09T07:12:52;4.25;;;0.70;;
69207;SDS011;56321;47.662;8.878;2022-09-09T07:15:18;3.63;;;0.60;;
69207;SDS011;56321;47.662;8.878;2022-09-09T07:17:47;4.35;;;0.70;;
69207;SDS011;56321;47.662;8.878;2022-09-09T07:20:13;5.13;;;0.75;;
69207;SDS011;56321;47.662;8.878;2022-09-09T07:22:40;3.57;;;0.60;;
69207;SDS011;56321;47.662;8.878;2022-09-09T07:25:05;3.40;;;0.75;;
69207;SDS011;56321;47.662;8.878;2022-09-09T07:27:31;3.53;;;0.50;;
69207;SDS011;56321;47.662;8.878;2022-09-09T07:29:57;3.40;;;0.60;;
69207;SDS011;56321;47.662;8.878;2022-09-09T07:32:22;4.50;;;0.67;;
69207;SDS011;56321;47.662;8.878;2022-09-09T07:34:48;3.67;;;0.73;;
69207;SDS011;56321;47.662;8.878;2022-09-09T07:37:15;3.53;;;0.80;;
69207;SDS011;56321;47.662;8.878;2022-09-09T07:39:40;3.60;;;0.73;;
69207;SDS011;56321;47.662;8.878;2022-09-09T07:42:07;4.88;;;0.80;;
69207;SDS011;56321;47.662;8.878;2022-09-09T07:44:36;3.60;;;0.65;;
69207;SDS011;56321;47.662;8.878;2022-09-09T07:47:02;4.33;;;0.80;;
69207;SDS011;56321;47.662;8.878;2022-09-09T07:49:27;3.30;;;0.50;;
69207;SDS011;56321;47.662;8.878;2022-09-09T07:51:53;3.50;;;0.60;;
69207;SDS011;56321;47.662;8.878;2022-09-09T07:54:18;3.93;;;0.57;;
69207;SDS011;56321;47.662;8.878;2022-09-09T07:56:48;4.20;;;0.70;;
69207;SDS011;56321;47.662;8.878;2022-09-09T07:59:14;4.03;;;0.60;;
69207;SDS011;56321;47.662;8.878;2022-09-09T08:01:42;4.20;;;0.60;;
69207;SDS011;56321;47.662;8.878;2022-09-09T08:04:10;3.65;;;0.70;;
69207;SDS011;56321;47.662;8.878;2022-09-09T08:06:43;3.47;;;0.60;;
69207;SDS011;56321;47.662;8.878;2022-09-09T08:09:11;2.97;;;0.60;;
69207;SDS011;56321;47.662;8.878;2022-09-09T08:11:38;3.60;;;0.70;;
69207;SDS011;56321;47.662;8.878;2022-09-09T08:14:04;3.67;;;0.60;;
69207;SDS011;56321;47.662;8.878;2022-09-09T08:16:32;4.28;;;0.88;;
69207;SDS011;56321;47.662;8.878;2022-09-09T08:19:01;4.70;;;0.70;;
69207;SDS011;56321;47.662;8.878;2022-09-09T08:21:28;3.60;;;0.70;;
69207;SDS011;56321;47.662;8.878;2022-09-09T08:23:57;3.33;;;0.65;;
69207;SDS011;56321;47.662;8.878;2022-09-09T08:26:25;4.20;;;0.70;;
69207;SDS011;56321;47.662;8.878;2022-09-09T08:28:55;3.97;;;0.73;;
69207;SDS011;56321;47.662;8.878;2022-09-09T08:31:23;4.17;;;0.83;;
69207;SDS011;56321;47.662;8.878;2022-09-09T08:33:50;3.58;;;0.50;;
69207;SDS011;56321;47.662;8.878;2022-09-09T08:36:19;3.63;;;0.70;;
69207;SDS011;56321;47.662;8.878;2022-09-09T08:38:47;4.03;;;0.70;;
69207;SDS011;56321;47.662;8.878;2022-09-09T08:43:46;5.68;;;0.80;;
69207;SDS011;56321;47.662;8.878;2022-09-09T08:46:19;5.68;;;0.80;;
69207;SDS011;56321;47.662;8.878;2022-09-09T08:49:16;4.97;;;0.60;;
69207;SDS011;56321;47.662;8.878;2022-09-09T08:52:01;4.03;;;0.60;;
69207;SDS011;56321;47.662;8.878;2022-09-09T08:54:32;5.07;;;0.75;;
69207;SDS011;56321;47.662;8.878;2022-09-09T08:57:01;5.25;;;0.80;;
69207;SDS011;56321;47.662;8.878;2022-09-09T08:59:26;4.80;;;0.77;;
69207;SDS011;56321;47.662;8.878;2022-09-09T09:01:57;5.30;;;0.70;;
69207;SDS011;56321;47.662;8.878;2022-09-09T09:07:39;3.40;;;0.80;;
69207;SDS011;56321;47.662;8.878;2022-09-09T09:13:13;4.95;;;0.88;;
69207;SDS011;56321;47.662;8.878;2022-09-09T09:15:40;3.63;;;0.65;;
69207;SDS011;56321;47.662;8.878;2022-09-09T09:18:07;6.47;;;0.83;;
69207;SDS011;56321;47.662;8.878;2022-09-09T09:20:58;6.43;;;0.85;;
69207;SDS011;56321;47.662;8.878;2022-09-09T09:24:02;3.28;;;0.52;;
69207;SDS011;56321;47.662;8.878;2022-09-09T09:26:31;3.97;;;0.80;;
69207;SDS011;56321;47.662;8.878;2022-09-09T09:28:58;5.38;;;0.82;;
69207;SDS011;56321;47.662;8.878;2022-09-09T09:31:25;5.30;;;0.80;;
69207;SDS011;56321;47.662;8.878;2022-09-09T09:33:55;4.18;;;0.70;;
69207;SDS011;56321;47.662;8.878;2022-09-09T09:36:32;4.93;;;0.70;;
69207;SDS011;56321;47.662;8.878;2022-09-09T09:39:07;3.72;;;0.60;;
69207;SDS011;56321;47.662;8.878;2022-09-09T09:41:35;5.63;;;0.77;;
69207;SDS011;56321;47.662;8.878;2022-09-09T09:44:03;5.03;;;0.90;;
69207;SDS011;56321;47.662;8.878;2022-09-09T09:46:30;4.35;;;0.70;;
69207;SDS011;56321;47.662;8.878;2022-09-09T09:48:59;3.80;;;0.80;;
69207;SDS011;56321;47.662;8.878;2022-09-09T09:56:38;6.37;;;1.00;;
69207;SDS011;56321;47.662;8.878;2022-09-09T09:59:04;4.30;;;0.88;;
69207;SDS011;56321;47.662;8.878;2022-09-09T10:01:30;4.50;;;1.00;;
69207;SDS011;56321;47.662;8.878;2022-09-09T10:04:02;6.03;;;1.27;;
69207;SDS011;56321;47.662;8.878;2022-09-09T10:06:38;5.55;;;0.90;;
69207;SDS011;56321;47.662;8.878;2022-09-09T10:09:19;4.38;;;0.90;;
69207;SDS011;56321;47.662;8.878;2022-09-09T10:14:27;5.50;;;0.93;;
69207;SDS011;56321;47.662;8.878;2022-09-09T10:23:28;3.60;;;0.77;;
69207;SDS011;56321;47.662;8.878;2022-09-09T10:26:24;4.10;;;0.80;;
69207;SDS011;56321;47.662;8.878;2022-09-09T10:29:10;4.03;;;0.90;;
69207;SDS011;56321;47.662;8.878;2022-09-09T10:42:50;3.50;;;0.60;;
69207;SDS011;56321;47.662;8.878;2022-09-09T10:45:18;4.00;;;0.63;;
69207;SDS011;56321;47.662;8.878;2022-09-09T10:55:56;4.53;;;0.73;;
69207;SDS011;56321;47.662;8.878;2022-09-09T10:58:30;4.80;;;0.90;;
69207;SDS011;56321;47.662;8.878;2022-09-09T11:01:02;4.50;;;0.70;;
69207;SDS011;56321;47.662;8.878;2022-09-09T11:03:37;4.45;;;0.50;;
69207;SDS011;56321;47.662;8.878;2022-09-09T11:06:06;3.95;;;0.70;;
69207;SDS011;56321;47.662;8.878;2022-09-09T11:08:45;4.30;;;1.00;;
69207;SDS011;56321;47.662;8.878;2022-09-09T11:19:21;3.70;;;0.98;;
69207;SDS011;56321;47.662;8.878;2022-09-09T11:21:53;4.10;;;1.00;;
69207;SDS011;56321;47.662;8.878;2022-09-09T11:27:09;4.53;;;1.20;;
69207;SDS011;56321;47.662;8.878;2022-09-09T11:33:13;4.57;;;1.50;;
69207;SDS011;56321;47.662;8.878;2022-09-09T11:35:25;4.30;;;1.67;;
69207;SDS011;56321;47.662;8.878;2022-09-09T11:40:26;3.88;;;1.20;;
69207;SDS011;56321;47.662;8.878;2022-09-09T11:43:09;4.63;;;1.73;;
69207;SDS011;56321;47.662;8.878;2022-09-09T11:45:53;4.90;;;1.85;;
69207;SDS011;56321;47.662;8.878;2022-09-09T11:50:59;5.60;;;1.63;;
69207;SDS011;56321;47.662;8.878;2022-09-09T11:53:33;4.53;;;2.00;;
69207;SDS011;56321;47.662;8.878;2022-09-09T11:56:50;4.97;;;1.83;;
69207;SDS011;56321;47.662;8.878;2022-09-09T11:59:22;4.50;;;1.90;;
69207;SDS011;56321;47.662;8.878;2022-09-09T12:02:52;4.17;;;1.57;;
69207;SDS011;56321;47.662;8.878;2022-09-09T12:05:01;5.03;;;1.48;;
69207;SDS011;56321;47.662;8.878;2022-09-09T12:13:07;6.15;;;1.65;;
69207;SDS011;56321;47.662;8.878;2022-09-09T12:15:46;4.47;;;1.60;;
69207;SDS011;56321;47.662;8.878;2022-09-09T12:18:15;5.10;;;1.58;;
69207;SDS011;56321;47.662;8.878;2022-09-09T12:20:57;6.80;;;1.40;;
69207;SDS011;56321;47.662;8.878;2022-09-09T12:26:27;4.35;;;1.40;;
69207;SDS011;56321;47.662;8.878;2022-09-09T12:28:56;4.00;;;1.20;;
69207;SDS011;56321;47.662;8.878;2022-09-09T12:34:17;3.83;;;1.02;;
69207;SDS011;56321;47.662;8.878;2022-09-09T12:36:45;4.32;;;1.30;;
69207;SDS011;56321;47.662;8.878;2022-09-09T12:39:29;4.72;;;1.20;;
69207;SDS011;56321;47.662;8.878;2022-09-09T12:42:00;3.70;;;0.97;;
69207;SDS011;56321;47.662;8.878;2022-09-09T12:44:26;3.83;;;1.08;;
69207;SDS011;56321;47.662;8.878;2022-09-09T12:46:54;5.00;;;1.13;;
69207;SDS011;56321;47.662;8.878;2022-09-09T12:49:28;4.73;;;1.20;;
69207;SDS011;56321;47.662;8.878;2022-09-09T12:52:01;3.67;;;0.85;;
69207;SDS011;56321;47.662;8.878;2022-09-09T12:54:32;4.20;;;1.00;;
69207;SDS011;56321;47.662;8.878;2022-09-09T12:57:00;4.78;;;1.00;;
69207;SDS011;56321;47.662;8.878;2022-09-09T12:59:39;3.33;;;0.87;;
69207;SDS011;56321;47.662;8.878;2022-09-09T13:02:11;4.53;;;0.90;;
69207;SDS011;56321;47.662;8.878;2022-09-09T13:04:44;4.68;;;0.80;;
69207;SDS011;56321;47.662;8.878;2022-09-09T13:07:12;4.33;;;0.80;;
69207;SDS011;56321;47.662;8.878;2022-09-09T13:09:38;4.13;;;0.77;;
69207;SDS011;56321;47.662;8.878;2022-09-09T13:12:04;4.55;;;0.77;;
69207;SDS011;56321;47.662;8.878;2022-09-09T13:14:32;5.38;;;0.90;;
69207;SDS011;56321;47.662;8.878;2022-09-09T13:17:03;5.38;;;0.95;;
69207;SDS011;56321;47.662;8.878;2022-09-09T13:19:31;4.33;;;0.73;;
69207;SDS011;56321;47.662;8.878;2022-09-09T13:22:00;3.90;;;0.80;;
69207;SDS011;56321;47.662;8.878;2022-09-09T13:24:44;4.53;;;0.90;;
69207;SDS011;56321;47.662;8.878;2022-09-09T13:30:23;4.10;;;1.00;;
69207;SDS011;56321;47.662;8.878;2022-09-09T13:35:45;4.03;;;0.80;;
69207;SDS011;56321;47.662;8.878;2022-09-09T13:38:15;4.53;;;0.60;;
69207;SDS011;56321;47.662;8.878;2022-09-09T13:40:51;3.58;;;0.70;;
69207;SDS011;56321;47.662;8.878;2022-09-09T13:43:21;3.95;;;0.68;;
69207;SDS011;56321;47.662;8.878;2022-09-09T13:46:00;4.85;;;0.80;;
69207;SDS011;56321;47.662;8.878;2022-09-09T13:48:27;4.75;;;0.95;;
69207;SDS011;56321;47.662;8.878;2022-09-09T13:51:02;2.90;;;0.70;;
69207;SDS011;56321;47.662;8.878;2022-09-09T13:53:32;4.57;;;0.60;;
69207;SDS011;56321;47.662;8.878;2022-09-09T13:55:58;3.63;;;0.60;;
69207;SDS011;56321;47.662;8.878;2022-09-09T13:58:24;3.40;;;0.70;;
69207;SDS011;56321;47.662;8.878;2022-09-09T14:00:50;4.82;;;0.80;;
69207;SDS011;56321;47.662;8.878;2022-09-09T14:03:17;3.83;;;0.60;;
69207;SDS011;56321;47.662;8.878;2022-09-09T14:05:43;4.33;;;0.90;;
69207;SDS011;56321;47.662;8.878;2022-09-09T14:08:11;4.43;;;0.70;;
69207;SDS011;56321;47.662;8.878;2022-09-09T14:10:41;4.78;;;0.68;;
69207;SDS011;56321;47.662;8.878;2022-09-09T14:13:06;4.53;;;0.90;;
69207;SDS011;56321;47.662;8.878;2022-09-09T14:15:33;2.50;;;0.70;;
69207;SDS011;56321;47.662;8.878;2022-09-09T14:17:58;4.03;;;0.73;;
69207;SDS011;56321;47.662;8.878;2022-09-09T14:20:24;3.40;;;0.70;;
69207;SDS011;56321;47.662;8.878;2022-09-09T14:22:49;4.20;;;0.60;;
69207;SDS011;56321;47.662;8.878;2022-09-09T14:25:14;4.13;;;0.60;;
69207;SDS011;56321;47.662;8.878;2022-09-09T14:27:40;5.73;;;0.73;;
69207;SDS011;56321;47.662;8.878;2022-09-09T14:30:07;3.22;;;0.70;;
69207;SDS011;56321;47.662;8.878;2022-09-09T14:32:33;4.20;;;0.53;;
69207;SDS011;56321;47.662;8.878;2022-09-09T14:34:58;3.78;;;0.60;;
69207;SDS011;56321;47.662;8.878;2022-09-09T14:37:23;4.37;;;0.70;;
69207;SDS011;56321;47.662;8.878;2022-09-09T14:39:49;3.37;;;0.60;;
69207;SDS011;56321;47.662;8.878;2022-09-09T14:42:15;4.00;;;0.60;;
69207;SDS011;56321;47.662;8.878;2022-09-09T14:44:41;3.35;;;0.60;;
69207;SDS011;56321;47.662;8.878;2022-09-09T14:47:07;3.73;;;0.70;;
69207;SDS011;56321;47.662;8.878;2022-09-09T14:49:33;5.30;;;0.60;;
69207;SDS011;56321;47.662;8.878;2022-09-09T14:51:59;4.30;;;0.77;;
69207;SDS011;56321;47.662;8.878;2022-09-09T14:54:24;3.95;;;0.50;;
69207;SDS011;56321;47.662;8.878;2022-09-09T14:56:50;5.10;;;0.70;;
69207;SDS011;56321;47.662;8.878;2022-09-09T14:59:15;3.47;;;0.57;;
69207;SDS011;56321;47.662;8.878;2022-09-09T15:01:41;3.33;;;0.40;;
69207;SDS011;56321;47.662;8.878;2022-09-09T15:04:06;4.73;;;0.40;;
69207;SDS011;56321;47.662;8.878;2022-09-09T15:06:33;2.25;;;0.40;;
69207;SDS011;56321;47.662;8.878;2022-09-09T15:09:01;3.22;;;0.40;;
69207;SDS011;56321;47.662;8.878;2022-09-09T15:11:28;3.63;;;0.50;;
69207;SDS011;56321;47.662;8.878;2022-09-09T15:13:55;5.10;;;0.60;;
69207;SDS011;56321;47.662;8.878;2022-09-09T15:16:24;2.97;;;0.50;;
69207;SDS011;56321;47.662;8.878;2022-09-09T15:18:52;3.08;;;0.30;;
69207;SDS011;56321;47.662;8.878;2022-09-09T15:21:21;3.23;;;0.40;;
69207;SDS011;56321;47.662;8.878;2022-09-09T15:23:49;2.97;;;0.30;;
69207;SDS011;56321;47.662;8.878;2022-09-09T15:26:15;3.80;;;0.43;;
69207;SDS011;56321;47.662;8.878;2022-09-09T15:28:42;3.05;;;0.40;;
69207;SDS011;56321;47.662;8.878;2022-09-09T15:31:09;3.30;;;0.50;;
69207;SDS011;56321;47.662;8.878;2022-09-09T15:33:39;3.80;;;0.40;;
69207;SDS011;56321;47.662;8.878;2022-09-09T15:36:15;3.63;;;0.40;;
69207;SDS011;56321;47.662;8.878;2022-09-09T15:38:45;5.80;;;2.22;;
69207;SDS011;56321;47.662;8.878;2022-09-09T15:41:11;2.97;;;0.70;;
69207;SDS011;56321;47.662;8.878;2022-09-09T15:43:37;4.78;;;0.63;;
69207;SDS011;56321;47.662;8.878;2022-09-09T15:46:18;3.95;;;0.40;;
69207;SDS011;56321;47.662;8.878;2022-09-09T15:48:52;7.15;;;4.05;;
69207;SDS011;56321;47.662;8.878;2022-09-09T15:51:21;7.30;;;3.70;;
69207;SDS011;56321;47.662;8.878;2022-09-09T15:53:48;5.33;;;1.30;;
69207;SDS011;56321;47.662;8.878;2022-09-09T15:56:13;5.32;;;1.92;;
69207;SDS011;56321;47.662;8.878;2022-09-09T15:58:39;4.53;;;1.00;;
69207;SDS011;56321;47.662;8.878;2022-09-09T16:01:06;5.43;;;2.75;;
69207;SDS011;56321;47.662;8.878;2022-09-09T16:03:39;4.25;;;0.75;;
69207;SDS011;56321;47.662;8.878;2022-09-09T16:06:12;15.87;;;13.43;;
69207;SDS011;56321;47.662;8.878;2022-09-09T16:08:42;8.38;;;4.13;;
69207;SDS011;56321;47.662;8.878;2022-09-09T16:11:14;19.50;;;17.60;;
69207;SDS011;56321;47.662;8.878;2022-09-09T16:13:42;25.17;;;22.77;;
69207;SDS011;56321;47.662;8.878;2022-09-09T16:16:12;11.90;;;8.73;;
69207;SDS011;56321;47.662;8.878;2022-09-09T16:18:39;8.70;;;6.53;;
69207;SDS011;56321;47.662;8.878;2022-09-09T16:21:06;6.93;;;1.88;;
69207;SDS011;56321;47.662;8.878;2022-09-09T16:23:33;6.03;;;1.70;;
69207;SDS011;56321;47.662;8.878;2022-09-09T16:25:59;5.30;;;0.80;;
69207;SDS011;56321;47.662;8.878;2022-09-09T16:28:25;9.43;;;7.43;;
69207;SDS011;56321;47.662;8.878;2022-09-09T16:30:50;6.53;;;2.07;;
69207;SDS011;56321;47.662;8.878;2022-09-09T16:33:16;3.07;;;0.73;;
69207;SDS011;56321;47.662;8.878;2022-09-09T16:35:42;10.50;;;7.57;;
69207;SDS011;56321;47.662;8.878;2022-09-09T16:38:08;11.77;;;8.87;;
69207;SDS011;56321;47.662;8.878;2022-09-09T16:40:36;15.70;;;14.02;;
69207;SDS011;56321;47.662;8.878;2022-09-09T16:43:05;11.50;;;8.43;;
69207;SDS011;56321;47.662;8.878;2022-09-09T16:45:31;12.23;;;10.17;;
69207;SDS011;56321;47.662;8.878;2022-09-09T16:47:57;13.15;;;11.75;;
69207;SDS011;56321;47.662;8.878;2022-09-09T16:50:23;7.78;;;4.47;;
69207;SDS011;56321;47.662;8.878;2022-09-09T16:52:48;9.67;;;7.20;;
69207;SDS011;56321;47.662;8.878;2022-09-09T16:55:13;12.03;;;10.30;;
69207;SDS011;56321;47.662;8.878;2022-09-09T16:57:39;10.43;;;7.00;;
69207;SDS011;56321;47.662;8.878;2022-09-09T17:00:06;11.23;;;7.07;;
69207;SDS011;56321;47.662;8.878;2022-09-09T17:02:32;8.32;;;3.30;;
69207;SDS011;56321;47.662;8.878;2022-09-09T17:04:58;6.93;;;1.73;;
69207;SDS011;56321;47.662;8.878;2022-09-09T17:07:24;3.78;;;0.70;;
69207;SDS011;56321;47.662;8.878;2022-09-09T17:09:49;3.60;;;0.40;;
69207;SDS011;56321;47.662;8.878;2022-09-09T17:12:15;2.77;;;0.40;;